sensor_id;sensor_type;location;lat;lon;timestamp;temperature;humidity
72576;DHT22;60613;48.658;2.328;2023-12-29T16:22:39;21.50;50.50
72576;DHT22;60613;48.658;2.328;2023-12-29T16:25:05;21.60;50.90
72576;DHT22;60613;48.658;2.328;2023-12-29T16:27:31;21.60;51.10
72576;DHT22;60613;48.658;2.328;2023-12-29T16:29:57;21.60;50.70
72576;DHT22;60613;48.658;2.328;2023-12-29T16:32:23;21.70;50.70
72576;DHT22;60613;48.658;2.328;2023-12-29T16:34:49;21.70;50.70
72576;DHT22;60613;48.658;2.328;2023-12-29T16:37:15;21.70;50.40
72576;DHT22;60613;48.658;2.328;2023-12-29T16:39:40;21.70;50.20
72576;DHT22;60613;48.658;2.328;2023-12-29T16:42:07;21.70;50.10
72576;DHT22;60613;48.658;2.328;2023-12-29T16:44:33;21.60;50.00
72576;DHT22;60613;48.658;2.328;2023-12-29T16:46:59;21.60;49.70
72576;DHT22;60613;48.658;2.328;2023-12-29T16:49:24;21.60;49.60
72576;DHT22;60613;48.658;2.328;2023-12-29T16:51:50;21.60;49.50
72576;DHT22;60613;48.658;2.328;2023-12-29T16:54:15;21.60;49.40
72576;DHT22;60613;48.658;2.328;2023-12-29T16:56:41;21.60;49.40
72576;DHT22;60613;48.658;2.328;2023-12-29T16:59:06;21.60;49.30
72576;DHT22;60613;48.658;2.328;2023-12-29T17:01:33;21.60;49.20
72576;DHT22;60613;48.658;2.328;2023-12-29T17:03:59;21.60;49.20
72576;DHT22;60613;48.658;2.328;2023-12-29T17:06:24;21.60;49.40
72576;DHT22;60613;48.658;2.328;2023-12-29T17:08:50;21.70;49.40
72576;DHT22;60613;48.658;2.328;2023-12-29T17:11:15;21.70;49.10
72576;DHT22;60613;48.658;2.328;2023-12-29T17:13:41;21.70;48.90
72576;DHT22;60613;48.658;2.328;2023-12-29T17:16:06;21.80;49.20
72576;DHT22;60613;48.658;2.328;2023-12-29T17:18:32;21.80;49.00
72576;DHT22;60613;48.658;2.328;2023-12-29T17:20:58;21.80;49.00
72576;DHT22;60613;48.658;2.328;2023-12-29T17:23:23;21.90;48.80
72576;DHT22;60613;48.658;2.328;2023-12-29T17:25:49;21.90;48.70
72576;DHT22;60613;48.658;2.328;2023-12-29T17:28:16;21.90;49.80
72576;DHT22;60613;48.658;2.328;2023-12-29T17:30:41;21.90;48.50
72576;DHT22;60613;48.658;2.328;2023-12-29T17:33:07;21.90;48.40
72576;DHT22;60613;48.658;2.328;2023-12-29T17:35:32;21.90;48.40
72576;DHT22;60613;48.658;2.328;2023-12-29T17:37:58;21.80;48.30
72576;DHT22;60613;48.658;2.328;2023-12-29T17:40:23;21.80;48.40
72576;DHT22;60613;48.658;2.328;2023-12-29T17:42:49;21.80;48.40
72576;DHT22;60613;48.658;2.328;2023-12-29T17:45:15;21.80;48.30
72576;DHT22;60613;48.658;2.328;2023-12-29T17:47:40;21.70;48.10
72576;DHT22;60613;48.658;2.328;2023-12-29T17:50:08;21.70;48.10
72576;DHT22;60613;48.658;2.328;2023-12-29T17:52:34;21.70;48.10
72576;DHT22;60613;48.658;2.328;2023-12-29T17:55:00;21.70;48.00
72576;DHT22;60613;48.658;2.328;2023-12-29T17:57:25;21.70;48.00
72576;DHT22;60613;48.658;2.328;2023-12-29T17:59:51;21.70;47.90
72576;DHT22;60613;48.658;2.328;2023-12-29T18:02:16;21.70;47.80
72576;DHT22;60613;48.658;2.328;2023-12-29T18:04:42;21.70;47.80
72576;DHT22;60613;48.658;2.328;2023-12-29T18:07:07;21.70;47.70
72576;DHT22;60613;48.658;2.328;2023-12-29T18:09:38;21.70;47.60
72576;DHT22;60613;48.658;2.328;2023-12-29T18:12:04;21.70;47.60
72576;DHT22;60613;48.658;2.328;2023-12-29T18:14:30;21.70;47.60
72576;DHT22;60613;48.658;2.328;2023-12-29T18:16:55;21.70;47.60
72576;DHT22;60613;48.658;2.328;2023-12-29T18:19:21;21.70;47.60
72576;DHT22;60613;48.658;2.328;2023-12-29T18:21:48;21.70;47.60
72576;DHT22;60613;48.658;2.328;2023-12-29T18:24:14;21.70;47.60
72576;DHT22;60613;48.658;2.328;2023-12-29T18:26:42;21.80;47.70
72576;DHT22;60613;48.658;2.328;2023-12-29T18:29:08;21.80;47.50
72576;DHT22;60613;48.658;2.328;2023-12-29T18:31:41;21.80;47.50
72576;DHT22;60613;48.658;2.328;2023-12-29T18:34:06;21.80;47.60
72576;DHT22;60613;48.658;2.328;2023-12-29T18:36:32;21.80;47.70
72576;DHT22;60613;48.658;2.328;2023-12-29T18:38:57;21.80;48.30
72576;DHT22;60613;48.658;2.328;2023-12-29T18:41:23;21.80;48.50
72576;DHT22;60613;48.658;2.328;2023-12-29T18:43:50;21.80;48.40
72576;DHT22;60613;48.658;2.328;2023-12-29T18:46:16;21.80;48.30
72576;DHT22;60613;48.658;2.328;2023-12-29T18:48:41;21.80;48.20
72576;DHT22;60613;48.658;2.328;2023-12-29T18:51:07;21.80;48.10
72576;DHT22;60613;48.658;2.328;2023-12-29T18:53:35;21.70;47.90
72576;DHT22;60613;48.658;2.328;2023-12-29T18:56:06;21.80;47.90
72576;DHT22;60613;48.658;2.328;2023-12-29T18:58:32;21.80;47.80
72576;DHT22;60613;48.658;2.328;2023-12-29T19:00:57;21.80;47.70
72576;DHT22;60613;48.658;2.328;2023-12-29T19:03:31;21.80;47.70
72576;DHT22;60613;48.658;2.328;2023-12-29T19:05:58;21.70;47.60
72576;DHT22;60613;48.658;2.328;2023-12-29T19:08:24;21.70;47.70
72576;DHT22;60613;48.658;2.328;2023-12-29T19:10:50;21.70;47.70
72576;DHT22;60613;48.658;2.328;2023-12-29T19:13:16;21.70;47.90
72576;DHT22;60613;48.658;2.328;2023-12-29T19:15:42;21.80;48.10
72576;DHT22;60613;48.658;2.328;2023-12-29T19:18:07;21.80;48.10
72576;DHT22;60613;48.658;2.328;2023-12-29T19:20:33;21.70;48.20
72576;DHT22;60613;48.658;2.328;2023-12-29T19:23:00;21.70;48.10
72576;DHT22;60613;48.658;2.328;2023-12-29T19:25:25;21.70;48.10
72576;DHT22;60613;48.658;2.328;2023-12-29T19:27:51;21.80;48.20
72576;DHT22;60613;48.658;2.328;2023-12-29T19:30:17;21.70;48.30
72576;DHT22;60613;48.658;2.328;2023-12-29T19:32:44;21.80;48.30
72576;DHT22;60613;48.658;2.328;2023-12-29T19:35:10;21.80;48.30
72576;DHT22;60613;48.658;2.328;2023-12-29T19:37:35;21.80;48.30
72576;DHT22;60613;48.658;2.328;2023-12-29T19:40:01;21.80;48.20
72576;DHT22;60613;48.658;2.328;2023-12-29T19:42:27;21.80;48.20
72576;DHT22;60613;48.658;2.328;2023-12-29T19:44:53;21.80;48.20
72576;DHT22;60613;48.658;2.328;2023-12-29T19:47:19;21.70;48.20
72576;DHT22;60613;48.658;2.328;2023-12-29T19:49:46;21.80;48.20
72576;DHT22;60613;48.658;2.328;2023-12-29T19:52:12;21.70;48.20
72576;DHT22;60613;48.658;2.328;2023-12-29T19:54:38;21.70;48.10
72576;DHT22;60613;48.658;2.328;2023-12-29T19:57:04;21.70;48.10
72576;DHT22;60613;48.658;2.328;2023-12-29T19:59:30;21.70;48.20
